sensor_id;sensor_type;location;lat;lon;timestamp;temperature;humidity
67777;DHT22;54576;52.020;5.536;2023-05-07T00:01:24;15.90;95.70
67777;DHT22;54576;52.020;5.536;2023-05-07T00:03:50;15.90;95.60
67777;DHT22;54576;52.020;5.536;2023-05-07T00:06:15;15.80;95.70
67777;DHT22;54576;52.020;5.536;2023-05-07T00:08:41;15.80;95.80
67777;DHT22;54576;52.020;5.536;2023-05-07T00:11:06;15.80;96.00
67777;DHT22;54576;52.020;5.536;2023-05-07T00:13:32;15.80;96.50
67777;DHT22;54576;52.020;5.536;2023-05-07T00:16:01;15.80;96.00
67777;DHT22;54576;52.020;5.536;2023-05-07T00:18:27;15.80;95.80
67777;DHT22;54576;52.020;5.536;2023-05-07T00:20:53;15.80;96.10
67777;DHT22;54576;52.020;5.536;2023-05-07T00:23:18;15.80;96.20
67777;DHT22;54576;52.020;5.536;2023-05-07T00:25:44;15.70;96.20
67777;DHT22;54576;52.020;5.536;2023-05-07T00:28:09;15.70;96.50
67777;DHT22;54576;52.020;5.536;2023-05-07T00:30:35;15.70;96.70
67777;DHT22;54576;52.020;5.536;2023-05-07T00:33:00;15.70;96.80
67777;DHT22;54576;52.020;5.536;2023-05-07T00:35:26;15.70;96.90
67777;DHT22;54576;52.020;5.536;2023-05-07T00:37:51;15.60;97.10
67777;DHT22;54576;52.020;5.536;2023-05-07T00:40:17;15.60;97.10
67777;DHT22;54576;52.020;5.536;2023-05-07T00:42:43;15.60;97.30
67777;DHT22;54576;52.020;5.536;2023-05-07T00:45:13;15.60;97.30
67777;DHT22;54576;52.020;5.536;2023-05-07T00:47:39;15.60;97.50
67777;DHT22;54576;52.020;5.536;2023-05-07T00:50:05;15.60;97.70
67777;DHT22;54576;52.020;5.536;2023-05-07T00:52:31;15.60;97.60
67777;DHT22;54576;52.020;5.536;2023-05-07T00:54:57;15.60;97.90
67777;DHT22;54576;52.020;5.536;2023-05-07T00:57:24;15.50;97.90
67777;DHT22;54576;52.020;5.536;2023-05-07T00:59:54;15.50;98.00
67777;DHT22;54576;52.020;5.536;2023-05-07T01:02:20;15.50;98.00
67777;DHT22;54576;52.020;5.536;2023-05-07T01:04:45;15.50;97.80
67777;DHT22;54576;52.020;5.536;2023-05-07T01:07:11;15.50;98.00
67777;DHT22;54576;52.020;5.536;2023-05-07T01:09:37;15.50;98.00
67777;DHT22;54576;52.020;5.536;2023-05-07T01:12:03;15.50;98.00
67777;DHT22;54576;52.020;5.536;2023-05-07T01:14:29;15.50;98.10
67777;DHT22;54576;52.020;5.536;2023-05-07T01:16:56;15.50;98.10
67777;DHT22;54576;52.020;5.536;2023-05-07T01:19:22;15.50;98.10
67777;DHT22;54576;52.020;5.536;2023-05-07T01:21:48;15.50;98.10
67777;DHT22;54576;52.020;5.536;2023-05-07T01:24:15;15.50;98.30
67777;DHT22;54576;52.020;5.536;2023-05-07T01:26:42;15.50;98.40
67777;DHT22;54576;52.020;5.536;2023-05-07T01:29:08;15.50;98.50
67777;DHT22;54576;52.020;5.536;2023-05-07T01:31:34;15.50;98.60
67777;DHT22;54576;52.020;5.536;2023-05-07T01:34:01;15.50;98.70
67777;DHT22;54576;52.020;5.536;2023-05-07T01:36:29;15.50;98.80
67777;DHT22;54576;52.020;5.536;2023-05-07T01:38:55;15.50;98.60
67777;DHT22;54576;52.020;5.536;2023-05-07T01:41:23;15.50;98.70
67777;DHT22;54576;52.020;5.536;2023-05-07T01:43:50;15.40;98.70
67777;DHT22;54576;52.020;5.536;2023-05-07T01:46:17;15.40;98.90
67777;DHT22;54576;52.020;5.536;2023-05-07T01:48:45;15.40;98.90
67777;DHT22;54576;52.020;5.536;2023-05-07T01:51:11;15.40;99.20
67777;DHT22;54576;52.020;5.536;2023-05-07T01:53:38;15.40;99.30
67777;DHT22;54576;52.020;5.536;2023-05-07T01:56:04;15.40;99.70
67777;DHT22;54576;52.020;5.536;2023-05-07T01:58:33;15.40;99.80
67777;DHT22;54576;52.020;5.536;2023-05-07T02:00:59;15.30;99.90
67777;DHT22;54576;52.020;5.536;2023-05-07T02:03:24;15.30;99.90
67777;DHT22;54576;52.020;5.536;2023-05-07T02:05:50;15.30;99.90
67777;DHT22;54576;52.020;5.536;2023-05-07T02:08:15;15.30;99.90
67777;DHT22;54576;52.020;5.536;2023-05-07T02:10:41;15.30;99.90
67777;DHT22;54576;52.020;5.536;2023-05-07T02:13:06;15.30;99.90
67777;DHT22;54576;52.020;5.536;2023-05-07T02:15:32;15.30;99.90
67777;DHT22;54576;52.020;5.536;2023-05-07T02:18:03;15.30;99.90
67777;DHT22;54576;52.020;5.536;2023-05-07T02:20:29;15.40;99.90
67777;DHT22;54576;52.020;5.536;2023-05-07T02:22:54;15.40;99.90
67777;DHT22;54576;52.020;5.536;2023-05-07T02:25:20;15.40;99.90
67777;DHT22;54576;52.020;5.536;2023-05-07T02:27:46;15.40;99.90
67777;DHT22;54576;52.020;5.536;2023-05-07T02:30:12;15.40;99.90
67777;DHT22;54576;52.020;5.536;2023-05-07T02:32:37;15.40;99.90
67777;DHT22;54576;52.020;5.536;2023-05-07T02:35:03;15.40;99.90
67777;DHT22;54576;52.020;5.536;2023-05-07T02:37:28;15.40;99.90
67777;DHT22;54576;52.020;5.536;2023-05-07T02:39:54;15.40;99.90
67777;DHT22;54576;52.020;5.536;2023-05-07T02:42:20;15.40;99.90
67777;DHT22;54576;52.020;5.536;2023-05-07T02:44:48;15.40;99.90
67777;DHT22;54576;52.020;5.536;2023-05-07T02:47:15;15.40;99.90
67777;DHT22;54576;52.020;5.536;2023-05-07T02:49:40;15.40;99.90
67777;DHT22;54576;52.020;5.536;2023-05-07T02:52:06;15.30;99.90
67777;DHT22;54576;52.020;5.536;2023-05-07T02:54:32;15.30;99.90
67777;DHT22;54576;52.020;5.536;2023-05-07T02:56:58;15.30;99.90
67777;DHT22;54576;52.020;5.536;2023-05-07T02:59:23;15.30;99.90
67777;DHT22;54576;52.020;5.536;2023-05-07T03:01:49;15.30;99.90
67777;DHT22;54576;52.020;5.536;2023-05-07T03:04:15;15.30;99.90
67777;DHT22;54576;52.020;5.536;2023-05-07T03:06:41;15.30;99.90
67777;DHT22;54576;52.020;5.536;2023-05-07T03:09:06;15.30;99.90
67777;DHT22;54576;52.020;5.536;2023-05-07T03:11:32;15.30;99.90
67777;DHT22;54576;52.020;5.536;2023-05-07T03:13:58;15.20;99.90
67777;DHT22;54576;52.020;5.536;2023-05-07T03:16:23;15.20;99.90
67777;DHT22;54576;52.020;5.536;2023-05-07T03:18:49;15.30;99.90
67777;DHT22;54576;52.020;5.536;2023-05-07T03:21:14;15.30;99.90
67777;DHT22;54576;52.020;5.536;2023-05-07T03:23:40;15.20;99.90
67777;DHT22;54576;52.020;5.536;2023-05-07T03:26:05;15.20;99.90
67777;DHT22;54576;52.020;5.536;2023-05-07T03:28:31;15.20;99.90
67777;DHT22;54576;52.020;5.536;2023-05-07T03:30:56;15.10;99.90
67777;DHT22;54576;52.020;5.536;2023-05-07T03:33:22;15.10;99.90
67777;DHT22;54576;52.020;5.536;2023-05-07T03:35:47;15.10;99.90
67777;DHT22;54576;52.020;5.536;2023-05-07T03:38:13;15.00;99.90
67777;DHT22;54576;52.020;5.536;2023-05-07T03:40:39;15.00;99.90
67777;DHT22;54576;52.020;5.536;2023-05-07T03:43:05;15.00;99.90
67777;DHT22;54576;52.020;5.536;2023-05-07T03:45:30;15.00;99.90
67777;DHT22;54576;52.020;5.536;2023-05-07T03:47:56;14.90;99.90
67777;DHT22;54576;52.020;5.536;2023-05-07T03:50:21;14.90;99.90
67777;DHT22;54576;52.020;5.536;2023-05-07T03:52:47;14.90;99.90
67777;DHT22;54576;52.020;5.536;2023-05-07T03:55:12;14.90;99.90
67777;DHT22;54576;52.020;5.536;2023-05-07T03:57:38;14.90;99.90
67777;DHT22;54576;52.020;5.536;2023-05-07T04:00:04;14.90;99.90
67777;DHT22;54576;52.020;5.536;2023-05-07T04:02:30;14.90;99.90
67777;DHT22;54576;52.020;5.536;2023-05-07T04:04:56;15.00;99.90
67777;DHT22;54576;52.020;5.536;2023-05-07T04:07:22;15.00;99.90
67777;DHT22;54576;52.020;5.536;2023-05-07T04:09:50;15.00;99.90
67777;DHT22;54576;52.020;5.536;2023-05-07T04:12:16;15.00;99.90
67777;DHT22;54576;52.020;5.536;2023-05-07T04:14:41;15.00;99.90
67777;DHT22;54576;52.020;5.536;2023-05-07T04:17:07;15.00;99.90
67777;DHT22;54576;52.020;5.536;2023-05-07T04:19:35;15.00;99.90
67777;DHT22;54576;52.020;5.536;2023-05-07T04:22:00;15.00;99.90
67777;DHT22;54576;52.020;5.536;2023-05-07T04:24:26;15.00;99.90
67777;DHT22;54576;52.020;5.536;2023-05-07T04:26:52;15.00;99.90
67777;DHT22;54576;52.020;5.536;2023-05-07T04:29:18;15.00;99.90
67777;DHT22;54576;52.020;5.536;2023-05-07T04:31:46;15.00;99.90
67777;DHT22;54576;52.020;5.536;2023-05-07T04:34:12;15.00;99.90
67777;DHT22;54576;52.020;5.536;2023-05-07T04:36:38;15.00;99.90
67777;DHT22;54576;52.020;5.536;2023-05-07T04:39:04;15.10;99.90
67777;DHT22;54576;52.020;5.536;2023-05-07T04:41:30;15.10;99.90
67777;DHT22;54576;52.020;5.536;2023-05-07T04:43:58;15.10;99.90
67777;DHT22;54576;52.020;5.536;2023-05-07T04:46:24;15.10;99.90
67777;DHT22;54576;52.020;5.536;2023-05-07T04:48:50;15.10;99.90
67777;DHT22;54576;52.020;5.536;2023-05-07T04:51:15;15.10;99.90
67777;DHT22;54576;52.020;5.536;2023-05-07T04:53:41;15.10;99.90
67777;DHT22;54576;52.020;5.536;2023-05-07T04:56:08;15.20;99.90
67777;DHT22;54576;52.020;5.536;2023-05-07T04:58:34;15.20;99.90
67777;DHT22;54576;52.020;5.536;2023-05-07T05:00:59;15.10;99.90
67777;DHT22;54576;52.020;5.536;2023-05-07T05:03:25;15.10;99.90
67777;DHT22;54576;52.020;5.536;2023-05-07T05:05:51;15.10;99.90
67777;DHT22;54576;52.020;5.536;2023-05-07T05:08:18;15.10;99.90
67777;DHT22;54576;52.020;5.536;2023-05-07T05:10:44;15.10;99.90
67777;DHT22;54576;52.020;5.536;2023-05-07T05:13:09;15.10;99.90
67777;DHT22;54576;52.020;5.536;2023-05-07T05:15:38;15.10;99.90
67777;DHT22;54576;52.020;5.536;2023-05-07T05:18:03;15.10;99.90
67777;DHT22;54576;52.020;5.536;2023-05-07T05:20:29;15.10;99.90
67777;DHT22;54576;52.020;5.536;2023-05-07T05:22:55;15.10;99.90
67777;DHT22;54576;52.020;5.536;2023-05-07T05:25:20;15.20;99.90
67777;DHT22;54576;52.020;5.536;2023-05-07T05:27:46;15.20;99.90
67777;DHT22;54576;52.020;5.536;2023-05-07T05:30:12;15.20;99.90
67777;DHT22;54576;52.020;5.536;2023-05-07T05:32:38;15.30;99.90
67777;DHT22;54576;52.020;5.536;2023-05-07T05:35:04;15.30;99.90
67777;DHT22;54576;52.020;5.536;2023-05-07T05:37:29;15.30;99.90
67777;DHT22;54576;52.020;5.536;2023-05-07T05:39:56;15.30;99.90
67777;DHT22;54576;52.020;5.536;2023-05-07T05:42:22;15.30;99.90
67777;DHT22;54576;52.020;5.536;2023-05-07T05:44:48;15.30;99.90
67777;DHT22;54576;52.020;5.536;2023-05-07T05:47:14;15.30;99.90
67777;DHT22;54576;52.020;5.536;2023-05-07T05:49:39;15.30;99.90
67777;DHT22;54576;52.020;5.536;2023-05-07T05:52:05;15.30;99.90
67777;DHT22;54576;52.020;5.536;2023-05-07T05:54:30;15.30;99.90
67777;DHT22;54576;52.020;5.536;2023-05-07T05:56:56;15.40;99.90
67777;DHT22;54576;52.020;5.536;2023-05-07T05:59:22;15.40;99.90
67777;DHT22;54576;52.020;5.536;2023-05-07T06:01:48;15.40;99.90
67777;DHT22;54576;52.020;5.536;2023-05-07T06:04:13;15.40;99.90
67777;DHT22;54576;52.020;5.536;2023-05-07T06:06:39;15.40;99.90
67777;DHT22;54576;52.020;5.536;2023-05-07T06:09:04;15.30;99.90
67777;DHT22;54576;52.020;5.536;2023-05-07T06:11:31;15.30;99.90
67777;DHT22;54576;52.020;5.536;2023-05-07T06:13:57;15.30;99.90
67777;DHT22;54576;52.020;5.536;2023-05-07T06:16:24;15.30;99.90
67777;DHT22;54576;52.020;5.536;2023-05-07T06:18:49;15.30;99.90
67777;DHT22;54576;52.020;5.536;2023-05-07T06:21:15;15.30;99.90
67777;DHT22;54576;52.020;5.536;2023-05-07T06:23:40;15.30;99.90
67777;DHT22;54576;52.020;5.536;2023-05-07T06:26:06;15.20;99.90
67777;DHT22;54576;52.020;5.536;2023-05-07T06:28:32;15.20;99.90
67777;DHT22;54576;52.020;5.536;2023-05-07T06:33:39;15.30;99.90
67777;DHT22;54576;52.020;5.536;2023-05-07T06:36:05;15.30;99.90
67777;DHT22;54576;52.020;5.536;2023-05-07T06:38:31;15.40;99.90
67777;DHT22;54576;52.020;5.536;2023-05-07T06:40:56;15.40;99.90
67777;DHT22;54576;52.020;5.536;2023-05-07T06:43:22;15.50;99.90
67777;DHT22;54576;52.020;5.536;2023-05-07T06:45:48;15.60;99.90
67777;DHT22;54576;52.020;5.536;2023-05-07T06:48:13;15.70;99.90
67777;DHT22;54576;52.020;5.536;2023-05-07T06:50:39;15.70;99.90
67777;DHT22;54576;52.020;5.536;2023-05-07T06:53:05;15.70;99.90
67777;DHT22;54576;52.020;5.536;2023-05-07T06:55:30;15.80;99.90
67777;DHT22;54576;52.020;5.536;2023-05-07T06:57:57;15.80;99.90
67777;DHT22;54576;52.020;5.536;2023-05-07T07:00:28;15.80;99.90
67777;DHT22;54576;52.020;5.536;2023-05-07T07:02:55;15.80;99.90
67777;DHT22;54576;52.020;5.536;2023-05-07T07:05:21;15.90;99.90
67777;DHT22;54576;52.020;5.536;2023-05-07T07:07:46;16.00;99.90
67777;DHT22;54576;52.020;5.536;2023-05-07T07:10:19;16.10;99.90
67777;DHT22;54576;52.020;5.536;2023-05-07T07:12:45;16.10;99.90
67777;DHT22;54576;52.020;5.536;2023-05-07T07:15:10;16.10;99.90
67777;DHT22;54576;52.020;5.536;2023-05-07T07:17:36;16.10;99.90
67777;DHT22;54576;52.020;5.536;2023-05-07T07:20:02;16.20;99.90
67777;DHT22;54576;52.020;5.536;2023-05-07T07:22:29;16.20;99.90
67777;DHT22;54576;52.020;5.536;2023-05-07T07:24:54;16.30;99.90
67777;DHT22;54576;52.020;5.536;2023-05-07T07:27:20;16.40;99.90
67777;DHT22;54576;52.020;5.536;2023-05-07T07:29:45;16.40;99.90
67777;DHT22;54576;52.020;5.536;2023-05-07T07:32:11;16.40;99.90
67777;DHT22;54576;52.020;5.536;2023-05-07T07:34:36;16.40;99.90
67777;DHT22;54576;52.020;5.536;2023-05-07T07:37:02;16.50;99.90
67777;DHT22;54576;52.020;5.536;2023-05-07T07:39:31;16.50;99.90
67777;DHT22;54576;52.020;5.536;2023-05-07T07:41:57;16.50;99.90
67777;DHT22;54576;52.020;5.536;2023-05-07T07:44:22;16.60;99.90
67777;DHT22;54576;52.020;5.536;2023-05-07T07:46:48;16.70;99.90
67777;DHT22;54576;52.020;5.536;2023-05-07T07:49:14;16.70;99.90
67777;DHT22;54576;52.020;5.536;2023-05-07T07:51:40;16.70;99.90
67777;DHT22;54576;52.020;5.536;2023-05-07T07:54:06;16.70;99.90
67777;DHT22;54576;52.020;5.536;2023-05-07T07:56:32;16.60;99.90
67777;DHT22;54576;52.020;5.536;2023-05-07T07:58:59;16.60;99.90
67777;DHT22;54576;52.020;5.536;2023-05-07T08:01:24;16.70;99.90
67777;DHT22;54576;52.020;5.536;2023-05-07T08:03:50;16.60;99.90
67777;DHT22;54576;52.020;5.536;2023-05-07T08:06:16;16.60;99.90
67777;DHT22;54576;52.020;5.536;2023-05-07T08:08:41;16.60;99.90
67777;DHT22;54576;52.020;5.536;2023-05-07T08:11:07;16.60;99.90
67777;DHT22;54576;52.020;5.536;2023-05-07T08:13:33;16.70;99.90
67777;DHT22;54576;52.020;5.536;2023-05-07T08:15:58;16.70;99.90
67777;DHT22;54576;52.020;5.536;2023-05-07T08:18:25;16.80;99.90
67777;DHT22;54576;52.020;5.536;2023-05-07T08:20:51;16.70;99.90
67777;DHT22;54576;52.020;5.536;2023-05-07T08:23:16;16.80;99.90
67777;DHT22;54576;52.020;5.536;2023-05-07T08:25:42;16.90;99.90
67777;DHT22;54576;52.020;5.536;2023-05-07T08:28:08;16.90;99.90
67777;DHT22;54576;52.020;5.536;2023-05-07T08:30:34;17.00;99.90
67777;DHT22;54576;52.020;5.536;2023-05-07T08:33:00;17.10;99.90
67777;DHT22;54576;52.020;5.536;2023-05-07T08:35:25;17.10;99.90
67777;DHT22;54576;52.020;5.536;2023-05-07T08:37:52;17.20;99.90
67777;DHT22;54576;52.020;5.536;2023-05-07T08:40:18;17.20;99.90
67777;DHT22;54576;52.020;5.536;2023-05-07T08:42:44;17.20;99.90
67777;DHT22;54576;52.020;5.536;2023-05-07T08:45:10;17.20;99.90
67777;DHT22;54576;52.020;5.536;2023-05-07T08:47:43;17.40;99.90
67777;DHT22;54576;52.020;5.536;2023-05-07T08:50:12;17.50;99.90
67777;DHT22;54576;52.020;5.536;2023-05-07T08:52:39;17.50;99.90
67777;DHT22;54576;52.020;5.536;2023-05-07T08:55:06;17.50;99.90
67777;DHT22;54576;52.020;5.536;2023-05-07T08:57:32;17.70;99.90
67777;DHT22;54576;52.020;5.536;2023-05-07T08:59:57;17.80;99.90
67777;DHT22;54576;52.020;5.536;2023-05-07T09:02:23;17.90;99.90
67777;DHT22;54576;52.020;5.536;2023-05-07T09:04:48;18.10;99.90
67777;DHT22;54576;52.020;5.536;2023-05-07T09:07:14;18.20;99.90
67777;DHT22;54576;52.020;5.536;2023-05-07T09:09:40;18.50;99.90
67777;DHT22;54576;52.020;5.536;2023-05-07T09:12:05;18.60;99.90
67777;DHT22;54576;52.020;5.536;2023-05-07T09:14:31;18.80;99.90
67777;DHT22;54576;52.020;5.536;2023-05-07T09:16:56;19.00;99.90
67777;DHT22;54576;52.020;5.536;2023-05-07T09:19:26;19.20;99.90
67777;DHT22;54576;52.020;5.536;2023-05-07T09:22:02;19.30;99.90
67777;DHT22;54576;52.020;5.536;2023-05-07T09:24:28;19.60;98.90
67777;DHT22;54576;52.020;5.536;2023-05-07T09:26:57;19.80;97.90
67777;DHT22;54576;52.020;5.536;2023-05-07T09:31:54;20.00;97.10
67777;DHT22;54576;52.020;5.536;2023-05-07T09:34:20;20.10;95.80
67777;DHT22;54576;52.020;5.536;2023-05-07T09:36:46;19.90;97.00
67777;DHT22;54576;52.020;5.536;2023-05-07T09:39:12;19.90;97.20
67777;DHT22;54576;52.020;5.536;2023-05-07T09:41:45;20.00;97.70
67777;DHT22;54576;52.020;5.536;2023-05-07T09:44:11;20.10;97.50
67777;DHT22;54576;52.020;5.536;2023-05-07T09:49:06;20.30;96.40
67777;DHT22;54576;52.020;5.536;2023-05-07T09:51:41;20.30;96.90
67777;DHT22;54576;52.020;5.536;2023-05-07T09:54:08;20.40;96.50
67777;DHT22;54576;52.020;5.536;2023-05-07T09:59:00;20.70;94.80
67777;DHT22;54576;52.020;5.536;2023-05-07T10:01:27;20.70;95.50
67777;DHT22;54576;52.020;5.536;2023-05-07T10:03:55;20.80;95.30
67777;DHT22;54576;52.020;5.536;2023-05-07T10:06:24;20.80;95.40
67777;DHT22;54576;52.020;5.536;2023-05-07T10:08:51;20.90;95.60
67777;DHT22;54576;52.020;5.536;2023-05-07T10:11:17;20.90;95.10
67777;DHT22;54576;52.020;5.536;2023-05-07T10:13:43;21.00;94.90
67777;DHT22;54576;52.020;5.536;2023-05-07T10:16:09;21.00;93.60
67777;DHT22;54576;52.020;5.536;2023-05-07T10:18:37;21.10;93.50
67777;DHT22;54576;52.020;5.536;2023-05-07T10:23:32;21.30;91.50
67777;DHT22;54576;52.020;5.536;2023-05-07T10:26:01;21.40;92.20
67777;DHT22;54576;52.020;5.536;2023-05-07T10:28:30;21.70;90.70
67777;DHT22;54576;52.020;5.536;2023-05-07T10:33:51;22.00;86.00
67777;DHT22;54576;52.020;5.536;2023-05-07T10:36:18;21.90;87.50
67777;DHT22;54576;52.020;5.536;2023-05-07T10:38:44;21.70;85.60
67777;DHT22;54576;52.020;5.536;2023-05-07T10:41:11;21.50;87.70
67777;DHT22;54576;52.020;5.536;2023-05-07T10:43:41;21.60;87.70
67777;DHT22;54576;52.020;5.536;2023-05-07T10:46:26;21.60;83.40
67777;DHT22;54576;52.020;5.536;2023-05-07T10:56:39;21.50;74.20
67777;DHT22;54576;52.020;5.536;2023-05-07T10:59:30;21.50;83.20
67777;DHT22;54576;52.020;5.536;2023-05-07T11:02:01;21.40;80.00
67777;DHT22;54576;52.020;5.536;2023-05-07T11:04:31;21.30;82.90
67777;DHT22;54576;52.020;5.536;2023-05-07T11:17:56;21.60;78.80
67777;DHT22;54576;52.020;5.536;2023-05-07T11:26:10;21.80;75.80
67777;DHT22;54576;52.020;5.536;2023-05-07T11:28:41;21.80;77.80
67777;DHT22;54576;52.020;5.536;2023-05-07T11:31:07;21.70;75.00
67777;DHT22;54576;52.020;5.536;2023-05-07T11:33:34;21.80;77.80
67777;DHT22;54576;52.020;5.536;2023-05-07T11:36:08;21.90;77.20
67777;DHT22;54576;52.020;5.536;2023-05-07T11:38:37;22.00;75.60
67777;DHT22;54576;52.020;5.536;2023-05-07T11:41:03;22.20;75.90
67777;DHT22;54576;52.020;5.536;2023-05-07T11:43:31;22.30;75.50
67777;DHT22;54576;52.020;5.536;2023-05-07T11:46:06;22.30;75.80
67777;DHT22;54576;52.020;5.536;2023-05-07T11:48:32;22.40;74.80
67777;DHT22;54576;52.020;5.536;2023-05-07T11:53:27;22.60;74.50
67777;DHT22;54576;52.020;5.536;2023-05-07T11:55:55;22.80;73.50
67777;DHT22;54576;52.020;5.536;2023-05-07T11:58:22;22.70;73.70
67777;DHT22;54576;52.020;5.536;2023-05-07T12:00:49;22.80;72.80
67777;DHT22;54576;52.020;5.536;2023-05-07T12:03:15;22.70;70.20
67777;DHT22;54576;52.020;5.536;2023-05-07T12:05:41;22.70;72.20
67777;DHT22;54576;52.020;5.536;2023-05-07T12:08:07;22.60;72.50
67777;DHT22;54576;52.020;5.536;2023-05-07T12:10:33;22.60;72.50
67777;DHT22;54576;52.020;5.536;2023-05-07T12:12:58;22.50;72.50
67777;DHT22;54576;52.020;5.536;2023-05-07T12:15:24;22.60;72.90
67777;DHT22;54576;52.020;5.536;2023-05-07T12:17:50;22.60;72.10
67777;DHT22;54576;52.020;5.536;2023-05-07T12:20:16;22.60;73.50
67777;DHT22;54576;52.020;5.536;2023-05-07T12:22:42;22.50;72.70
67777;DHT22;54576;52.020;5.536;2023-05-07T12:25:08;22.50;72.40
67777;DHT22;54576;52.020;5.536;2023-05-07T12:27:36;22.70;72.10
67777;DHT22;54576;52.020;5.536;2023-05-07T12:30:02;23.00;72.00
67777;DHT22;54576;52.020;5.536;2023-05-07T12:32:28;23.30;72.10
67777;DHT22;54576;52.020;5.536;2023-05-07T12:34:54;23.60;70.60
67777;DHT22;54576;52.020;5.536;2023-05-07T12:37:24;23.80;69.60
67777;DHT22;54576;52.020;5.536;2023-05-07T12:40:07;23.80;69.10
67777;DHT22;54576;52.020;5.536;2023-05-07T12:42:37;23.80;68.10
67777;DHT22;54576;52.020;5.536;2023-05-07T12:45:13;23.80;68.70
67777;DHT22;54576;52.020;5.536;2023-05-07T12:47:44;23.70;67.10
67777;DHT22;54576;52.020;5.536;2023-05-07T12:50:10;23.80;69.70
67777;DHT22;54576;52.020;5.536;2023-05-07T12:52:36;23.90;69.30
67777;DHT22;54576;52.020;5.536;2023-05-07T12:55:07;23.90;69.20
67777;DHT22;54576;52.020;5.536;2023-05-07T12:57:40;23.90;68.30
67777;DHT22;54576;52.020;5.536;2023-05-07T13:00:06;23.80;68.50
67777;DHT22;54576;52.020;5.536;2023-05-07T13:02:38;23.60;67.70
67777;DHT22;54576;52.020;5.536;2023-05-07T13:05:04;23.40;65.10
67777;DHT22;54576;52.020;5.536;2023-05-07T13:07:30;23.30;67.40
67777;DHT22;54576;52.020;5.536;2023-05-07T13:09:56;23.30;67.40
67777;DHT22;54576;52.020;5.536;2023-05-07T13:12:21;23.30;67.30
67777;DHT22;54576;52.020;5.536;2023-05-07T13:14:47;23.20;67.20
67777;DHT22;54576;52.020;5.536;2023-05-07T13:17:12;23.20;67.00
67777;DHT22;54576;52.020;5.536;2023-05-07T13:19:38;23.10;66.80
67777;DHT22;54576;52.020;5.536;2023-05-07T13:22:04;23.10;66.50
67777;DHT22;54576;52.020;5.536;2023-05-07T13:24:29;23.20;66.80
67777;DHT22;54576;52.020;5.536;2023-05-07T13:26:55;23.20;67.80
67777;DHT22;54576;52.020;5.536;2023-05-07T13:29:21;23.20;66.80
67777;DHT22;54576;52.020;5.536;2023-05-07T13:31:54;23.30;67.00
67777;DHT22;54576;52.020;5.536;2023-05-07T13:34:19;23.50;67.00
67777;DHT22;54576;52.020;5.536;2023-05-07T13:36:45;23.60;66.10
67777;DHT22;54576;52.020;5.536;2023-05-07T13:39:11;23.70;66.00
67777;DHT22;54576;52.020;5.536;2023-05-07T13:41:36;23.70;66.90
67777;DHT22;54576;52.020;5.536;2023-05-07T13:44:02;23.60;67.70
67777;DHT22;54576;52.020;5.536;2023-05-07T13:46:27;23.40;67.80
67777;DHT22;54576;52.020;5.536;2023-05-07T13:48:55;23.30;68.00
67777;DHT22;54576;52.020;5.536;2023-05-07T13:51:20;23.10;68.60
67777;DHT22;54576;52.020;5.536;2023-05-07T13:53:46;23.00;68.80
67777;DHT22;54576;52.020;5.536;2023-05-07T13:56:12;22.90;68.50
67777;DHT22;54576;52.020;5.536;2023-05-07T13:58:38;22.90;68.70
67777;DHT22;54576;52.020;5.536;2023-05-07T14:01:03;22.80;68.60
67777;DHT22;54576;52.020;5.536;2023-05-07T14:03:29;22.70;69.20
67777;DHT22;54576;52.020;5.536;2023-05-07T14:05:57;22.70;69.20
67777;DHT22;54576;52.020;5.536;2023-05-07T14:08:23;22.70;69.20
67777;DHT22;54576;52.020;5.536;2023-05-07T14:10:48;22.80;76.20
67777;DHT22;54576;52.020;5.536;2023-05-07T14:13:14;22.80;69.40
67777;DHT22;54576;52.020;5.536;2023-05-07T14:15:39;22.80;69.10
67777;DHT22;54576;52.020;5.536;2023-05-07T14:18:05;22.80;69.40
67777;DHT22;54576;52.020;5.536;2023-05-07T14:20:31;22.80;69.40
67777;DHT22;54576;52.020;5.536;2023-05-07T14:22:57;22.80;68.30
67777;DHT22;54576;52.020;5.536;2023-05-07T14:25:23;22.80;68.10
67777;DHT22;54576;52.020;5.536;2023-05-07T14:27:48;22.80;68.90
67777;DHT22;54576;52.020;5.536;2023-05-07T14:32:40;23.00;68.40
67777;DHT22;54576;52.020;5.536;2023-05-07T14:35:05;22.90;69.10
67777;DHT22;54576;52.020;5.536;2023-05-07T14:37:31;22.90;68.40
67777;DHT22;54576;52.020;5.536;2023-05-07T14:39:56;23.00;67.70
67777;DHT22;54576;52.020;5.536;2023-05-07T14:42:22;23.00;67.40
67777;DHT22;54576;52.020;5.536;2023-05-07T14:44:47;22.90;67.70
67777;DHT22;54576;52.020;5.536;2023-05-07T14:47:18;22.90;68.00
67777;DHT22;54576;52.020;5.536;2023-05-07T14:49:43;22.80;67.80
67777;DHT22;54576;52.020;5.536;2023-05-07T14:52:09;22.70;68.10
67777;DHT22;54576;52.020;5.536;2023-05-07T14:54:36;22.60;67.90
67777;DHT22;54576;52.020;5.536;2023-05-07T14:57:02;22.40;68.10
67777;DHT22;54576;52.020;5.536;2023-05-07T14:59:28;22.30;68.60
67777;DHT22;54576;52.020;5.536;2023-05-07T15:01:54;22.20;68.70
67777;DHT22;54576;52.020;5.536;2023-05-07T15:04:19;22.20;68.70
67777;DHT22;54576;52.020;5.536;2023-05-07T15:06:46;22.00;68.80
67777;DHT22;54576;52.020;5.536;2023-05-07T15:09:12;22.00;69.10
67777;DHT22;54576;52.020;5.536;2023-05-07T15:11:37;21.80;69.30
67777;DHT22;54576;52.020;5.536;2023-05-07T15:14:03;21.70;69.90
67777;DHT22;54576;52.020;5.536;2023-05-07T15:16:28;21.50;70.30
67777;DHT22;54576;52.020;5.536;2023-05-07T15:18:54;21.30;71.10
67777;DHT22;54576;52.020;5.536;2023-05-07T15:21:20;21.30;72.20
67777;DHT22;54576;52.020;5.536;2023-05-07T15:23:45;21.20;72.70
67777;DHT22;54576;52.020;5.536;2023-05-07T15:26:11;21.10;74.10
67777;DHT22;54576;52.020;5.536;2023-05-07T15:28:36;21.00;76.10
67777;DHT22;54576;52.020;5.536;2023-05-07T15:31:03;20.70;76.40
67777;DHT22;54576;52.020;5.536;2023-05-07T15:33:29;20.30;76.50
67777;DHT22;54576;52.020;5.536;2023-05-07T15:35:54;20.00;77.80
67777;DHT22;54576;52.020;5.536;2023-05-07T15:38:24;19.70;78.30
67777;DHT22;54576;52.020;5.536;2023-05-07T15:40:49;19.50;78.90
67777;DHT22;54576;52.020;5.536;2023-05-07T15:43:15;19.30;80.10
67777;DHT22;54576;52.020;5.536;2023-05-07T15:45:42;19.00;80.90
67777;DHT22;54576;52.020;5.536;2023-05-07T15:48:09;18.60;82.30
67777;DHT22;54576;52.020;5.536;2023-05-07T15:50:35;18.40;81.60
67777;DHT22;54576;52.020;5.536;2023-05-07T15:53:01;18.10;82.10
67777;DHT22;54576;52.020;5.536;2023-05-07T15:55:26;18.00;83.50
67777;DHT22;54576;52.020;5.536;2023-05-07T15:57:52;17.90;83.80
67777;DHT22;54576;52.020;5.536;2023-05-07T16:00:19;17.70;84.60
67777;DHT22;54576;52.020;5.536;2023-05-07T16:02:45;17.50;87.20
67777;DHT22;54576;52.020;5.536;2023-05-07T16:05:11;17.40;88.50
67777;DHT22;54576;52.020;5.536;2023-05-07T16:07:38;17.30;89.30
67777;DHT22;54576;52.020;5.536;2023-05-07T16:10:04;17.20;88.50